createdAt,value
2023-04-04T06:39:40.929Z,50.875397
2023-04-04T06:40:41.245Z,50.875351
2023-04-04T06:41:40.882Z,50.875267
2023-04-04T06:42:40.843Z,50.875298
2023-04-04T06:43:40.849Z,50.875435
2023-04-04T06:44:40.827Z,50.875633
2023-04-04T06:45:40.836Z,50.875511
2023-04-04T06:46:40.916Z,50.875404
2023-04-04T06:47:40.844Z,50.875492
2023-04-04T06:48:40.801Z,50.875454
2023-04-04T06:49:40.811Z,50.875164
2023-04-04T06:50:40.989Z,50.875492
2023-04-04T06:51:40.780Z,50.875492
2023-04-04T06:52:40.805Z,50.875492
2023-04-04T06:53:40.777Z,50.875206
2023-04-04T06:54:40.743Z,50.875435
2023-04-04T06:55:40.766Z,50.875473
2023-04-04T06:56:40.766Z,50.875389
2023-04-04T06:57:40.714Z,50.875355
2023-04-04T06:58:40.706Z,50.875423
2023-04-04T06:59:41.153Z,50.875500
2023-04-04T07:00:40.893Z,50.875328
2023-04-04T07:01:40.670Z,50.875496
2023-04-04T07:02:40.774Z,50.875660
2023-04-04T07:03:40.667Z,50.875553
2023-04-04T07:04:40.645Z,50.875408
2023-04-04T07:05:40.628Z,50.875687
2023-04-04T07:06:40.624Z,50.875370
2023-04-04T07:07:40.588Z,50.875183
2023-04-04T07:08:40.640Z,50.875031
2023-04-04T07:09:40.642Z,50.875198
2023-04-04T07:10:41.258Z,50.875862
2023-04-04T07:11:40.574Z,50.875809
2023-04-04T07:12:40.588Z,50.875633
2023-04-04T07:13:41.291Z,50.875641
2023-04-04T07:14:40.555Z,50.875675
2023-04-04T07:15:40.525Z,50.875572
2023-04-04T07:16:40.580Z,50.875690
2023-04-04T07:17:40.540Z,50.875656
2023-04-04T07:18:40.520Z,50.875477
2023-04-04T07:19:40.501Z,50.875431
2023-04-04T07:20:40.705Z,50.875435
2023-04-04T07:21:40.470Z,50.875359
2023-04-04T07:22:40.559Z,50.875507
2023-04-04T07:23:40.461Z,50.875408
2023-04-04T07:24:40.463Z,50.875404
2023-04-04T07:25:41.144Z,50.875366
2023-04-04T07:26:40.425Z,50.875332
2023-04-04T07:27:40.409Z,50.875332
2023-04-04T07:28:40.408Z,50.875584
2023-04-04T07:29:40.412Z,50.876522
2023-04-04T07:30:40.586Z,50.878239
2023-04-04T07:31:40.379Z,50.876202
2023-04-04T07:32:40.374Z,50.876030
2023-04-04T07:33:40.363Z,50.875839
2023-04-04T07:34:40.378Z,50.875664
2023-04-04T07:35:40.497Z,50.875618
2023-04-04T07:36:40.289Z,50.875542
2023-04-04T07:37:40.316Z,50.875511
2023-04-04T07:38:40.316Z,50.875591
2023-04-04T07:39:40.323Z,50.875504
2023-04-04T07:40:40.517Z,50.875458
2023-04-04T07:41:40.285Z,50.875359
2023-04-04T07:42:40.252Z,50.875057
2023-04-04T07:43:40.256Z,50.875355
2023-04-04T07:44:40.301Z,50.875237
2023-04-04T07:45:40.230Z,50.875439
2023-04-04T07:46:40.205Z,50.875481
2023-04-04T07:47:40.206Z,50.875259
2023-04-04T07:48:40.201Z,50.875271
2023-04-04T07:49:40.211Z,50.875191
2023-04-04T07:50:40.413Z,50.875622
2023-04-04T07:51:40.152Z,50.875565
2023-04-04T07:52:40.134Z,50.875534
2023-04-04T07:53:40.144Z,50.875565
2023-04-04T07:54:40.218Z,50.875576
2023-04-04T07:55:40.119Z,50.875607
2023-04-04T07:56:40.159Z,50.875492
2023-04-04T07:57:40.114Z,50.875755
2023-04-04T07:58:40.088Z,50.875668
2023-04-04T07:59:40.109Z,50.876030
2023-04-04T08:00:40.242Z,50.876080
2023-04-04T08:01:40.069Z,50.876255
2023-04-04T08:02:40.195Z,50.876041
2023-04-04T08:03:40.240Z,50.875954
2023-04-04T08:04:40.078Z,50.876049
2023-04-04T08:05:40.091Z,50.875973
2023-04-04T08:06:40.046Z,50.875931
2023-04-04T08:07:40.031Z,50.876194
2023-04-04T08:08:39.988Z,50.877018
2023-04-04T08:09:40.038Z,50.877060
2023-04-04T08:10:40.196Z,50.877060
2023-04-04T08:11:39.972Z,50.877060
2023-04-04T08:12:39.966Z,50.877060
2023-04-04T08:13:39.946Z,50.877060
2023-04-04T08:14:39.951Z,50.877060
2023-04-04T08:15:39.971Z,50.877060
2023-04-04T08:16:40.879Z,50.877060
2023-04-04T08:17:39.940Z,50.877060
2023-04-04T08:18:39.910Z,50.877060
2023-04-04T08:19:39.893Z,50.877060
2023-04-04T08:20:39.974Z,50.877060
2023-04-04T08:21:39.900Z,50.877060
2023-04-04T08:22:39.856Z,50.877060
2023-04-04T08:23:39.852Z,50.877060
2023-04-04T08:24:39.835Z,50.877060
2023-04-04T08:25:39.842Z,50.877060
2023-04-04T08:26:39.820Z,50.877060
2023-04-04T08:27:39.783Z,50.877060
2023-04-04T08:28:39.950Z,50.877060
2023-04-04T08:29:39.785Z,50.877060
2023-04-04T08:30:39.953Z,50.877060
2023-04-04T08:31:39.783Z,50.877060
2023-04-04T08:32:39.783Z,50.877060
2023-04-04T08:33:47.176Z,50.877060
2023-04-04T08:34:41.735Z,50.877060
2023-04-04T08:35:39.769Z,50.877060
2023-04-04T08:36:39.706Z,50.877060
2023-04-04T08:37:39.725Z,50.877060
2023-04-04T08:38:39.689Z,50.877060
2023-04-04T08:39:39.692Z,50.877060
2023-04-04T08:40:39.943Z,50.877060
2023-04-04T08:41:39.670Z,50.877060
2023-04-04T08:42:39.651Z,50.877060
2023-04-04T08:43:39.661Z,50.877060
2023-04-04T08:44:39.630Z,50.877060
2023-04-04T08:45:39.649Z,50.877060
2023-04-04T08:46:39.655Z,50.877060
2023-04-04T08:47:39.649Z,50.877060
2023-04-04T08:48:39.619Z,50.877060
2023-04-04T08:49:39.593Z,50.877060
2023-04-04T08:50:39.715Z,50.877060
2023-04-04T08:51:39.569Z,50.877060
2023-04-04T08:52:40.556Z,50.877060
2023-04-04T08:53:39.582Z,50.877060
2023-04-04T08:54:39.562Z,50.877060
2023-04-04T08:55:39.528Z,50.875526
2023-04-04T08:56:39.526Z,50.875427
2023-04-04T08:57:39.524Z,50.875336
2023-04-04T08:58:39.515Z,50.875446
2023-04-04T08:59:39.764Z,50.875446
2023-04-04T09:00:39.683Z,50.875340
2023-04-04T09:01:39.516Z,50.875374
2023-04-04T09:02:39.581Z,50.875401
2023-04-04T09:03:39.474Z,50.875378
2023-04-04T09:04:39.580Z,50.875370
2023-04-04T09:05:39.454Z,50.875397
2023-04-04T09:06:39.503Z,50.875431
2023-04-04T09:07:39.916Z,50.875351
2023-04-04T09:08:40.445Z,50.875378
2023-04-04T09:09:39.406Z,50.875347
2023-04-04T09:10:39.565Z,50.875423
2023-04-04T09:11:39.386Z,50.875416
2023-04-04T09:12:39.386Z,50.875423
2023-04-04T09:13:41.272Z,50.875427
2023-04-04T09:14:39.372Z,50.875381
2023-04-04T09:15:39.340Z,50.875366
2023-04-04T09:16:39.367Z,50.875408
2023-04-04T09:17:39.369Z,50.875404
2023-04-04T09:18:39.307Z,50.875313
2023-04-04T09:19:40.326Z,50.875317
2023-04-04T09:20:39.603Z,50.875351
2023-04-04T09:21:39.280Z,50.875420
2023-04-04T09:22:39.293Z,50.875385
2023-04-04T09:23:39.291Z,50.875401
2023-04-04T09:24:39.285Z,50.875362
2023-04-04T09:25:39.262Z,50.875401
2023-04-04T09:26:39.232Z,50.875477
2023-04-04T09:27:39.240Z,50.875435
2023-04-04T09:28:39.238Z,50.875439
2023-04-04T09:29:39.232Z,50.875443
2023-04-04T09:30:39.492Z,50.875454
2023-04-04T09:31:39.198Z,50.875561
2023-04-04T09:32:39.386Z,50.875481
2023-04-04T09:33:39.167Z,50.875404
2023-04-04T09:34:39.205Z,50.875412
2023-04-04T09:35:39.192Z,50.875370
2023-04-04T09:36:39.160Z,50.875401
2023-04-04T09:37:39.088Z,50.875370
2023-04-04T09:38:39.104Z,50.875412
2023-04-04T09:39:39.071Z,50.875412
2023-04-04T09:40:39.305Z,50.875366
2023-04-04T09:41:39.020Z,50.875401
2023-04-04T09:42:40.097Z,50.875401
2023-04-04T09:43:39.032Z,50.875469
2023-04-04T09:44:39.090Z,50.875401
2023-04-04T09:45:39.063Z,50.875336
2023-04-04T09:46:39.146Z,50.875286
2023-04-04T09:47:39.069Z,50.875240
2023-04-04T09:48:38.985Z,50.875523
2023-04-04T09:49:39.988Z,50.875576
2023-04-04T09:50:39.161Z,50.875439
2023-04-04T09:51:39.976Z,50.875385
2023-04-04T09:52:38.988Z,50.875340
2023-04-04T09:53:38.960Z,50.875282
2023-04-04T09:54:48.057Z,50.875217
2023-04-04T09:55:41.134Z,50.875370
2023-04-04T09:56:38.934Z,50.875336
2023-04-04T09:57:38.887Z,50.875393
2023-04-04T09:58:46.303Z,50.875595
2023-04-04T09:59:39.927Z,50.875439
2023-04-04T10:00:39.126Z,50.875465
2023-04-04T10:01:38.907Z,50.875313
2023-04-04T10:02:38.898Z,50.875374
2023-04-04T10:03:38.858Z,50.875496
2023-04-04T10:04:38.833Z,50.875496
2023-04-04T10:05:38.825Z,50.875408
2023-04-04T10:06:38.858Z,50.875229
2023-04-04T10:07:38.813Z,50.875229
2023-04-04T10:08:38.814Z,50.875229
2023-04-04T10:09:38.845Z,50.875229
2023-04-04T10:10:38.941Z,50.875229
2023-04-04T10:11:38.764Z,50.875229
2023-04-04T10:12:38.765Z,50.875229
2023-04-04T10:13:38.777Z,50.875580
2023-04-04T10:14:38.710Z,50.875366
2023-04-04T10:15:38.777Z,50.875362
2023-04-04T10:16:38.801Z,50.875362
2023-04-04T10:17:38.751Z,50.875362
2023-04-04T10:18:38.729Z,50.875191
2023-04-04T10:19:38.701Z,50.875248
2023-04-04T10:20:38.821Z,50.877647
2023-04-04T10:21:38.704Z,50.877647
2023-04-04T10:22:38.660Z,50.877647
2023-04-04T10:23:38.735Z,50.877647
2023-04-04T10:24:38.720Z,50.877647
2023-04-04T10:25:38.794Z,50.877647
2023-04-04T10:26:38.660Z,50.877647
2023-04-04T10:27:38.655Z,50.877647
2023-04-04T10:28:38.637Z,50.877647
2023-04-04T10:29:38.672Z,50.877647
2023-04-04T10:30:38.841Z,50.877647
2023-04-04T10:31:38.659Z,50.877647
2023-04-04T10:32:38.690Z,50.877647
2023-04-04T10:33:38.608Z,50.877647
2023-04-04T10:34:38.571Z,50.877647
2023-04-04T10:35:38.610Z,50.877647
2023-04-04T10:36:38.575Z,50.877647
2023-04-04T10:37:38.549Z,50.877647
2023-04-04T10:38:38.579Z,50.877647
2023-04-04T10:39:38.518Z,50.877647
2023-04-04T10:40:38.953Z,50.877647
2023-04-04T10:41:38.493Z,50.877647
2023-04-04T10:42:38.502Z,50.877647
2023-04-04T10:44:08.743Z,50.877647
2023-04-04T10:44:39.425Z,50.877647
2023-04-04T10:45:38.646Z,50.877647
2023-04-04T10:46:38.562Z,50.877647
2023-04-04T10:47:38.567Z,50.877647
2023-04-04T10:48:38.378Z,50.877647
2023-04-04T10:49:39.591Z,50.877647
2023-04-04T10:50:38.431Z,50.877647
2023-04-04T10:51:48.800Z,50.877647
2023-04-04T10:52:40.430Z,50.877647
2023-04-04T10:53:38.405Z,50.877647
2023-04-04T10:54:38.372Z,50.877647
2023-04-04T10:55:38.582Z,50.877647
2023-04-04T10:56:38.430Z,50.877647
2023-04-04T10:57:38.400Z,50.875458
2023-04-04T10:58:38.967Z,50.875473
2023-04-04T10:59:38.383Z,50.875366
2023-04-04T11:00:38.405Z,50.875366
2023-04-04T11:01:38.395Z,50.875435
2023-04-04T11:02:38.363Z,50.875492
2023-04-04T11:03:38.295Z,50.875221
2023-04-04T11:04:38.362Z,50.875141
2023-04-04T11:05:38.312Z,50.875198
2023-04-04T11:06:38.228Z,50.875351
2023-04-04T11:07:38.276Z,50.875340
2023-04-04T11:08:38.204Z,50.875000
2023-04-04T11:09:38.198Z,50.875198
2023-04-04T11:10:38.199Z,50.875431
2023-04-04T11:11:38.243Z,50.875252
2023-04-04T11:12:38.177Z,50.875305
2023-04-04T11:13:38.216Z,50.875423
2023-04-04T11:14:38.179Z,50.875420
2023-04-04T11:15:38.439Z,50.875397
2023-04-04T11:16:38.183Z,50.875351
2023-04-04T11:17:38.161Z,50.875343
2023-04-04T11:18:38.252Z,50.875347
2023-04-04T11:19:38.110Z,50.875072
2023-04-04T11:20:38.104Z,50.875225
2023-04-04T11:21:38.136Z,50.875385
2023-04-04T11:22:38.083Z,50.875443
2023-04-04T11:23:38.041Z,50.875370
2023-04-04T11:24:38.084Z,50.875362
2023-04-04T11:25:38.313Z,50.875374
2023-04-04T11:26:38.061Z,50.875366
2023-04-04T11:27:38.034Z,50.875347
2023-04-04T11:28:38.049Z,50.875534
2023-04-04T11:29:38.002Z,50.875347
2023-04-04T11:30:38.057Z,50.875427
2023-04-04T11:31:38.015Z,50.875431
2023-04-04T11:32:38.058Z,50.875473
2023-04-04T11:33:38.015Z,50.875439
2023-04-04T11:34:37.982Z,50.875381
2023-04-04T11:35:38.219Z,50.875427
2023-04-04T11:36:38.011Z,50.875538
2023-04-04T11:37:37.934Z,50.875504
2023-04-04T11:38:37.940Z,50.875446
2023-04-04T11:39:37.961Z,50.875378
2023-04-04T11:40:38.152Z,50.875439
2023-04-04T11:41:37.968Z,50.875423
2023-04-04T11:42:37.917Z,50.875519
2023-04-04T11:43:37.936Z,50.875519
2023-04-04T11:44:37.892Z,50.875553
2023-04-04T11:45:38.359Z,50.875229
2023-04-04T11:46:38.149Z,50.875866
2023-04-04T11:47:40.773Z,50.875298
2023-04-04T11:48:37.938Z,50.875355
2023-04-04T11:49:37.918Z,50.875439
2023-04-04T11:50:37.942Z,50.875416
2023-04-04T11:51:37.966Z,50.875534
2023-04-04T11:52:39.756Z,50.875309
2023-04-04T11:53:37.943Z,50.875374
2023-04-04T11:54:37.905Z,50.875423
2023-04-04T11:55:38.129Z,50.875450
2023-04-04T11:56:37.872Z,50.875477
2023-04-04T11:57:37.843Z,50.875599
2023-04-04T11:58:37.772Z,50.875610
2023-04-04T11:59:37.829Z,50.875576
2023-04-04T12:00:37.876Z,50.875523
2023-04-04T12:01:37.851Z,50.875385
2023-04-04T12:02:38.156Z,50.875366
2023-04-04T12:03:39.304Z,50.875328
2023-04-04T12:04:38.864Z,50.875378
2023-04-04T12:05:38.192Z,50.875465
2023-04-04T12:06:37.726Z,50.875622
2023-04-04T12:07:37.639Z,50.875526
2023-04-04T12:08:37.921Z,50.875484
2023-04-04T12:09:37.821Z,50.875336
2023-04-04T12:10:39.332Z,50.875263
2023-04-04T12:11:37.610Z,50.875496
2023-04-04T12:12:37.642Z,50.875389
2023-04-04T12:13:37.619Z,50.875450
2023-04-04T12:14:37.617Z,50.875347
2023-04-04T12:15:37.977Z,50.875420
2023-04-04T12:16:37.686Z,50.875568
2023-04-04T12:17:37.813Z,50.875534
2023-04-04T12:18:37.648Z,50.875481
2023-04-04T12:19:37.540Z,50.875439
2023-04-04T12:20:37.554Z,50.875504
2023-04-04T12:21:37.534Z,50.875420
2023-04-04T12:22:37.498Z,50.875504
2023-04-04T12:23:37.514Z,50.875435
2023-04-04T12:24:37.435Z,50.875473
2023-04-04T12:25:38.660Z,50.875484
2023-04-04T12:26:37.428Z,50.875435
2023-04-04T12:27:37.452Z,50.875549
2023-04-04T12:28:37.413Z,50.875259
2023-04-04T12:29:37.439Z,50.875374
2023-04-04T12:30:37.383Z,50.875313
2023-04-04T12:31:37.418Z,50.875416
2023-04-04T12:32:37.401Z,50.875446
2023-04-04T12:33:37.352Z,50.875378
2023-04-04T12:34:37.399Z,50.875435
2023-04-04T12:36:04.089Z,50.875443
2023-04-04T12:36:56.348Z,50.875484
2023-04-04T12:37:38.600Z,50.875324
2023-04-04T12:38:37.324Z,50.875443
2023-04-04T12:39:37.326Z,50.875359
2023-04-04T12:40:37.420Z,50.875404
2023-04-04T12:41:37.291Z,50.875439
2023-04-04T12:42:37.300Z,50.875488
2023-04-04T12:43:37.276Z,50.875313
2023-04-04T12:44:37.275Z,50.875336
2023-04-04T12:45:37.329Z,50.875324
2023-04-04T12:46:37.258Z,50.875355
2023-04-04T12:47:37.291Z,50.875408
2023-04-04T12:48:37.235Z,50.875401
2023-04-04T12:49:37.215Z,50.875416
2023-04-04T12:50:37.216Z,50.875534
2023-04-04T12:51:37.190Z,50.875500
2023-04-04T12:52:37.188Z,50.875427
2023-04-04T12:53:37.180Z,50.875416
2023-04-04T12:54:37.174Z,50.875427
2023-04-04T12:55:37.141Z,50.875362
2023-04-04T12:56:37.272Z,50.875351
2023-04-04T12:57:37.117Z,50.875282
2023-04-04T12:58:37.632Z,50.875340
2023-04-04T12:59:38.247Z,50.875366
2023-04-04T13:00:37.161Z,50.875351
2023-04-04T13:01:37.096Z,50.875370
2023-04-04T13:02:37.137Z,50.875362
2023-04-04T13:03:37.164Z,50.875298
2023-04-04T13:04:37.173Z,50.875481
2023-04-04T13:05:37.058Z,50.875366
2023-04-04T13:06:37.115Z,50.875481
2023-04-04T13:07:37.027Z,50.875370
2023-04-04T13:08:37.004Z,50.875244
2023-04-04T13:09:37.131Z,50.875340
2023-04-04T13:10:38.009Z,50.875286
2023-04-04T13:11:37.039Z,50.875225
2023-04-04T13:12:37.073Z,50.875282
2023-04-04T13:13:37.085Z,50.875336
2023-04-04T13:14:36.970Z,50.875492
2023-04-04T13:15:36.977Z,50.875427
2023-04-04T13:16:36.973Z,50.875313
2023-04-04T13:17:36.951Z,50.875225
2023-04-04T13:18:36.958Z,50.875221
2023-04-04T13:19:36.890Z,50.875278
2023-04-04T13:20:36.928Z,50.875252
2023-04-04T13:21:36.900Z,50.875233
2023-04-04T13:22:36.899Z,50.875355
2023-04-04T13:23:36.915Z,50.875313
2023-04-04T13:24:38.585Z,50.875301
2023-04-04T13:25:36.904Z,50.875401
2023-04-04T13:26:36.904Z,50.875420
2023-04-04T13:27:36.955Z,50.875416
2023-04-04T13:28:36.835Z,50.875347
2023-04-04T13:29:36.856Z,50.875294
2023-04-04T13:30:36.818Z,50.875355
2023-04-04T13:31:36.869Z,50.875305
2023-04-04T13:32:36.810Z,50.875328
2023-04-04T13:33:36.882Z,50.875324
2023-04-04T13:34:36.788Z,50.875511
2023-04-04T13:35:36.739Z,50.875401
2023-04-04T13:36:36.802Z,50.875439
2023-04-04T13:37:36.795Z,50.875465
2023-04-04T13:38:36.767Z,50.875317
2023-04-04T13:39:36.735Z,50.875252
2023-04-04T13:40:37.792Z,50.875244
2023-04-04T13:41:36.718Z,50.875256
2023-04-04T13:42:36.837Z,50.875317
2023-04-04T13:43:36.712Z,50.875175
2023-04-04T13:44:36.916Z,50.875282
2023-04-04T13:45:36.822Z,50.875359
2023-04-04T13:46:36.819Z,50.875374
2023-04-04T13:47:36.762Z,50.875374
2023-04-04T13:48:37.853Z,50.875408
2023-04-04T13:49:36.690Z,50.875416
2023-04-04T13:50:36.638Z,50.875435
2023-04-04T13:51:36.634Z,50.875069
2023-04-04T13:52:36.635Z,50.875385
2023-04-04T13:53:36.616Z,50.875355
2023-04-04T13:54:36.615Z,50.875408
2023-04-04T13:55:36.582Z,50.875366
2023-04-04T13:56:36.582Z,50.875526
2023-04-04T13:57:36.561Z,50.875366
2023-04-04T13:58:36.612Z,50.875374
2023-04-04T13:59:36.736Z,50.875477
2023-04-04T14:00:36.501Z,50.875420
2023-04-04T14:01:36.622Z,50.875317
2023-04-04T14:02:36.549Z,50.875168
2023-04-04T14:03:36.574Z,50.875336
2023-04-04T14:04:36.585Z,50.875427
2023-04-04T14:05:36.501Z,50.875603
2023-04-04T14:06:36.757Z,50.875381
2023-04-04T14:07:37.302Z,50.875366
2023-04-04T14:08:36.457Z,50.875656
2023-04-04T14:09:36.525Z,50.875210
2023-04-04T14:10:36.501Z,50.875351
2023-04-04T14:11:37.863Z,50.875259
2023-04-04T14:14:35.791Z,50.875874
2023-04-04T14:14:47.304Z,50.875874
2023-04-04T14:15:42.963Z,50.875839
2023-04-04T14:16:39.310Z,50.875790
2023-04-04T14:18:31.505Z,50.875713
2023-04-04T14:19:03.417Z,50.875740
2023-04-04T14:19:41.384Z,50.875698
2023-04-04T14:20:39.407Z,50.876404
2023-04-04T14:22:19.178Z,50.889156
2023-04-04T14:25:08.948Z,50.889156
2023-04-04T14:26:08.295Z,50.889156
2023-04-04T14:27:09.369Z,50.889156
2023-04-04T14:28:08.787Z,50.875580
2023-04-04T14:29:08.915Z,50.875381
2023-04-04T14:30:09.312Z,50.875511
2023-04-04T14:31:07.983Z,50.875420
2023-04-04T14:32:08.299Z,50.875397
2023-04-04T14:33:07.862Z,50.875443
2023-04-04T14:34:07.720Z,50.875416
2023-04-04T14:35:07.837Z,50.875450
2023-04-04T14:36:07.828Z,50.875381
2023-04-04T14:37:08.806Z,50.875362
2023-04-04T14:38:10.607Z,50.875381
2023-04-04T14:39:09.807Z,50.875412
2023-04-04T14:40:07.692Z,50.875443
2023-04-04T14:41:07.719Z,50.875496
2023-04-04T14:42:07.699Z,50.875423
2023-04-04T14:43:07.769Z,50.875443
2023-04-04T14:44:07.660Z,50.875462
2023-04-04T14:45:07.740Z,50.875546
2023-04-04T14:46:07.603Z,50.875381
2023-04-04T14:47:07.679Z,50.875248
2023-04-04T14:48:07.824Z,50.875214
2023-04-04T14:49:07.575Z,50.875370
2023-04-04T14:50:07.608Z,50.875343
2023-04-04T14:51:07.532Z,50.875385
2023-04-04T14:52:07.638Z,50.875378
2023-04-04T14:53:07.544Z,50.875320
2023-04-04T14:54:07.576Z,50.875351
2023-04-04T14:55:08.768Z,50.875233
2023-04-04T14:56:08.616Z,50.875301
2023-04-04T14:57:07.721Z,50.875401
2023-04-04T14:58:07.826Z,50.875549
2023-04-04T14:59:07.607Z,50.875401
2023-04-04T15:00:07.561Z,50.875366
2023-04-04T15:01:08.355Z,50.875542
2023-04-04T15:02:07.530Z,50.875416
2023-04-04T15:03:07.724Z,50.875469
2023-04-04T15:04:07.572Z,50.875462
2023-04-04T15:05:07.517Z,50.875412
2023-04-04T15:06:07.455Z,50.875507
2023-04-04T15:07:09.329Z,50.875565
2023-04-04T15:08:07.447Z,50.875359
2023-04-04T15:09:07.391Z,50.875584
2023-04-04T15:10:07.595Z,50.875370
2023-04-04T15:11:08.394Z,50.875511
2023-04-04T15:12:27.317Z,50.875359
2023-04-04T15:13:09.708Z,50.875309
2023-04-04T15:14:22.459Z,50.875195
2023-04-04T15:15:09.406Z,50.875484
2023-04-04T15:16:08.880Z,50.875374
2023-04-04T15:17:07.351Z,50.875374
2023-04-04T15:18:07.422Z,50.875374
2023-04-04T15:19:07.289Z,50.875374
2023-04-04T15:20:11.762Z,50.875374
2023-04-04T15:21:33.861Z,50.875374
2023-04-04T15:23:04.011Z,50.875374
2023-04-04T15:23:07.346Z,50.875374
2023-04-04T15:24:07.308Z,50.874966
2023-04-04T15:25:07.479Z,50.875027
2023-04-04T15:26:07.895Z,50.875263
2023-04-04T15:27:07.555Z,50.875263
2023-04-04T15:28:07.318Z,50.875263
2023-04-04T15:29:07.238Z,50.875263
2023-04-04T15:30:07.255Z,50.875263
2023-04-04T15:31:07.385Z,50.875263
2023-04-04T18:12:11.735Z,50.875778
2023-04-04T18:13:11.692Z,50.875774
2023-04-04T18:14:11.716Z,50.875793
2023-04-04T18:15:11.749Z,50.875610
2023-04-04T18:16:11.722Z,50.875729
2023-04-04T18:17:11.694Z,50.875881
2023-04-04T18:18:12.691Z,50.875713
2023-04-04T18:19:11.714Z,50.874619
2023-04-04T18:20:14.294Z,50.874702
2023-04-04T18:21:13.697Z,50.874702
2023-04-04T18:22:11.660Z,50.874702
2023-04-04T18:23:11.590Z,50.874702
2023-04-04T18:24:11.978Z,50.875057
2023-04-04T18:25:11.583Z,50.875095
2023-04-04T18:26:11.610Z,50.875080
2023-04-04T18:27:11.573Z,50.875080
2023-04-04T18:28:11.595Z,50.875175
2023-04-04T18:29:11.564Z,50.875256
2023-04-04T18:30:11.551Z,50.875401
2023-04-04T18:31:11.704Z,50.875526
2023-04-04T18:32:11.597Z,50.875381
2023-04-04T18:33:11.501Z,50.875359
2023-04-04T18:34:11.477Z,50.875370
2023-04-04T18:35:11.493Z,50.874908
2023-04-04T18:36:11.530Z,50.874977
2023-04-04T18:37:11.493Z,50.874977
2023-04-04T18:38:11.502Z,50.874977
2023-04-04T18:39:11.421Z,50.874977
2023-04-04T18:40:11.491Z,50.874977
2023-04-04T18:41:11.463Z,50.874977
2023-04-04T18:42:11.426Z,50.874977
2023-04-04T18:43:11.428Z,50.874977
2023-04-04T18:44:11.391Z,50.874977
2023-04-04T18:45:11.376Z,50.874977
2023-04-04T18:46:11.468Z,50.874977
2023-04-04T18:47:11.370Z,50.874977
2023-04-04T18:48:11.415Z,50.874977
2023-04-04T18:49:11.336Z,50.874977
2023-04-04T18:50:11.343Z,50.874977
2023-04-04T18:51:11.371Z,50.874977
2023-04-04T18:52:11.310Z,50.874977
2023-04-04T18:53:11.427Z,50.874977
2023-04-04T18:54:11.361Z,50.874977
2023-04-04T18:55:11.292Z,50.874977
2023-04-04T18:56:11.287Z,50.874977
2023-04-04T18:57:11.320Z,50.874977
2023-04-04T18:58:11.235Z,50.874977
2023-04-04T18:59:11.275Z,50.874977
2023-04-04T19:00:11.212Z,50.874977
2023-04-04T19:01:11.260Z,50.874977
2023-04-04T19:02:11.258Z,50.874977
2023-04-04T19:03:13.104Z,50.874977
2023-04-04T19:04:12.187Z,50.874977
2023-04-04T19:05:11.220Z,50.874977
2023-04-04T19:06:11.219Z,50.874977
2023-04-04T19:07:11.185Z,50.874977
2023-04-04T19:08:11.164Z,50.874977
2023-04-04T19:09:11.130Z,50.874977
2023-04-04T19:10:11.155Z,50.874977
2023-04-04T19:11:11.165Z,50.874977
2023-04-04T19:12:11.121Z,50.874977
2023-04-04T19:13:11.103Z,50.874977
2023-04-04T19:14:11.104Z,50.874977
2023-04-04T19:15:11.129Z,50.874977
2023-04-04T19:16:11.121Z,50.874977
2023-04-04T19:17:11.081Z,50.874977
2023-04-04T19:18:11.140Z,50.874977
2023-04-04T19:19:11.051Z,50.874977
2023-04-04T19:20:11.054Z,50.874977
2023-04-04T19:21:11.505Z,50.874977
2023-04-04T19:22:11.031Z,50.874977
2023-04-04T19:23:11.084Z,50.874977
2023-04-04T19:24:11.017Z,50.874977
2023-04-04T19:25:10.988Z,50.874977
2023-04-04T19:26:11.018Z,50.875397
2023-04-04T19:27:10.993Z,50.875309
2023-04-04T19:28:10.962Z,50.875317
2023-04-04T19:29:10.944Z,50.875324
2023-04-04T19:30:10.952Z,50.875324
2023-04-04T19:31:11.102Z,50.875298
2023-04-04T19:32:10.929Z,50.875332
2023-04-04T19:33:11.802Z,50.875328
2023-04-04T19:34:14.918Z,50.875305
2023-04-04T19:35:13.634Z,50.875343
2023-04-04T19:36:11.133Z,50.875336
2023-04-04T19:37:12.482Z,50.875275
2023-04-04T19:38:10.877Z,50.875301
2023-04-04T19:39:10.937Z,50.875313
2023-04-04T19:40:10.884Z,50.875362
2023-04-04T19:41:10.870Z,50.875370
2023-04-04T19:42:10.865Z,50.875427
2023-04-04T19:43:10.817Z,50.875580
2023-04-04T19:44:11.051Z,50.875771
2023-04-04T19:45:10.776Z,50.875477
2023-04-04T19:46:10.948Z,50.875320
2023-04-04T19:47:10.801Z,50.875305
2023-04-04T19:48:10.817Z,50.875221
2023-04-04T19:49:10.746Z,50.875149
2023-04-04T19:50:10.743Z,50.875114
2023-04-04T19:51:10.724Z,50.875294
2023-04-04T19:52:10.750Z,50.875385
2023-04-04T19:53:10.745Z,50.875435
2023-04-04T19:54:10.768Z,50.875317
2023-04-04T19:55:10.736Z,50.875294
2023-04-04T19:56:11.303Z,50.875397
2023-04-04T19:57:11.689Z,50.875362
2023-04-04T19:58:10.668Z,50.875435
2023-04-04T19:59:15.855Z,50.875469
2023-04-04T20:00:10.710Z,50.875473
2023-04-04T20:01:11.652Z,50.875351
2023-04-04T20:02:10.788Z,50.875587
2023-04-04T20:03:10.690Z,50.875557
2023-04-04T20:04:10.686Z,50.875355
2023-04-04T20:05:10.627Z,50.875294
2023-04-04T20:06:10.634Z,50.875145
2023-04-04T20:07:10.631Z,50.874996
2023-04-04T20:08:10.680Z,50.875237
2023-04-04T20:09:12.256Z,50.875259
2023-04-04T20:10:14.533Z,50.875328
2023-04-04T20:11:10.565Z,50.875252
2023-04-04T20:12:10.674Z,50.875587
2023-04-04T20:13:34.891Z,50.875141
2023-04-04T20:15:49.023Z,50.875027
2023-04-04T20:16:10.555Z,50.875027
2023-04-04T20:18:32.370Z,50.875027
2023-04-04T20:18:53.865Z,50.875027
2023-04-04T20:19:36.193Z,50.875027
2023-04-04T20:20:36.441Z,50.875027
2023-04-04T20:21:34.099Z,50.875027
2023-04-04T20:22:35.165Z,50.875027
2023-04-04T20:23:47.805Z,50.875027
2023-04-04T20:24:34.948Z,50.875027
2023-04-04T20:25:33.935Z,50.875027
2023-04-04T20:26:33.942Z,50.875027
2023-04-04T20:27:34.001Z,50.875027
2023-04-04T20:28:33.944Z,50.875027
2023-04-04T20:29:34.644Z,50.875027
2023-04-04T20:30:33.955Z,50.875027
2023-04-04T20:31:33.947Z,50.875027
2023-04-04T20:32:33.955Z,50.875027
2023-04-04T20:33:33.848Z,50.875027
2023-04-04T20:34:33.884Z,50.875027
2023-04-04T20:35:33.928Z,50.875027
2023-04-04T20:36:33.897Z,50.875027
2023-04-04T20:37:33.886Z,50.875027
2023-04-04T20:38:33.902Z,50.875027
2023-04-04T20:39:33.864Z,50.875027
2023-04-04T20:40:33.859Z,50.875027
2023-04-04T20:41:38.354Z,50.875027
2023-04-04T20:42:34.910Z,50.875027
2023-04-04T20:43:33.783Z,50.875027
2023-04-04T20:44:33.804Z,50.875027
2023-04-04T20:45:34.731Z,50.875027
2023-04-04T20:46:34.020Z,50.875027
2023-04-04T20:47:33.863Z,50.875027
2023-04-04T20:48:33.727Z,50.875027